Time;durP1;ratioP1;P1;durP2;ratioP2;P2;SDS_P1;SDS_P2;PMS_P1;PMS_P2;Temp;Humidity;BMP_temperature;BMP_pressure;BME280_temperature;BME280_humidity;BME280_pressure;Samples;Min_cycle;Max_cycle;Signal;HPM_P1;HPM_P2
2023/07/18 00:00:17;;;;;;;2.28;1.80;;;;;;;26.12;100.00;100334.09;5007210;28;20057;-77
2023/07/18 00:02:45;;;;;;;5.32;2.92;;;;;;;25.96;100.00;100317.25;4987047;28;20049;-76
2023/07/18 00:05:12;;;;;;;9.13;3.42;;;;;;;25.58;100.00;100269.50;5006921;28;20038;-76
2023/07/18 00:07:39;;;;;;;3.22;1.67;;;;;;;25.58;100.00;100253.38;5001816;28;20111;-77
2023/07/18 00:10:05;;;;;;;4.88;2.92;;;;;;;25.12;100.00;100181.09;5005990;28;20096;-76
2023/07/18 00:12:30;;;;;;;4.07;2.65;;;;;;;25.88;100.00;100312.38;5001791;28;20038;-76
2023/07/18 00:14:56;;;;;;;5.28;3.72;;;;;;;25.48;100.00;100251.28;5009106;28;20116;-76
2023/07/18 00:17:21;;;;;;;6.10;3.33;;;;;;;25.36;100.00;100216.31;5009146;28;20453;-77
2023/07/18 00:19:47;;;;;;;4.30;2.67;;;;;;;25.25;100.00;100231.28;4986780;28;20332;-76
2023/07/18 00:22:12;;;;;;;3.47;2.42;;;;;;;25.29;100.00;100253.44;4997427;28;20077;-76
2023/07/18 00:24:38;;;;;;;9.07;3.90;;;;;;;25.35;100.00;100271.84;5002358;28;20033;-76
2023/07/18 00:27:04;;;;;;;4.13;2.13;;;;;;;25.20;100.00;100240.59;5004579;28;20030;-77
2023/07/18 00:29:29;;;;;;;3.50;2.00;;;;;;;25.30;100.00;100267.72;5004918;28;20597;-77
2023/07/18 00:31:56;;;;;;;13.07;4.40;;;;;;;25.25;100.00;100244.72;5006506;28;20077;-76
2023/07/18 00:34:21;;;;;;;6.07;2.75;;;;;;;25.20;100.00;100238.78;4986985;28;20057;-76
2023/07/18 00:36:47;;;;;;;4.65;2.17;;;;;;;25.72;100.00;100315.16;4998601;28;20034;-77
2023/07/18 00:39:12;;;;;;;12.40;3.30;;;;;;;25.72;100.00;100333.13;5004131;28;20026;-78
2023/07/18 00:41:38;;;;;;;4.78;2.70;;;;;;;25.52;100.00;100312.88;5004492;28;20049;-77
2023/07/18 00:44:04;;;;;;;5.50;2.58;;;;;;;25.69;100.00;100347.63;5004512;28;20552;-79
2023/07/18 00:46:29;;;;;;;11.75;4.07;;;;;;;25.28;100.00;100306.28;4994327;28;20068;-78
2023/07/18 00:48:55;;;;;;;3.42;2.33;;;;;;;24.59;100.00;100309.66;5002517;28;20057;-78
2023/07/18 00:51:24;;;;;;;3.88;2.42;;;;;;;24.21;100.00;100254.63;5006722;28;20561;-78
2023/07/18 00:53:51;;;;;;;7.88;3.65;;;;;;;24.53;100.00;100301.97;4991862;28;20252;-79
2023/07/18 00:56:17;;;;;;;5.32;3.28;;;;;;;24.59;100.00;100247.94;5002367;28;20188;-77
2023/07/18 00:58:44;;;;;;;13.98;3.47;;;;;;;25.16;100.00;100350.00;5002383;28;20132;-77
2023/07/18 01:01:10;;;;;;;5.38;2.92;;;;;;;24.71;100.00;100289.25;4990205;28;20085;-79
2023/07/18 01:03:38;;;;;;;6.25;3.20;;;;;;;24.59;100.00;100360.63;4999184;28;20696;-77
2023/07/18 01:06:05;;;;;;;3.80;2.00;;;;;;;23.98;100.00;100281.94;4999076;28;20060;-78
2023/07/18 01:08:31;;;;;;;3.78;1.98;;;;;;;23.86;100.00;100299.56;4998847;28;20046;-78
2023/07/18 01:10:56;;;;;;;4.05;2.45;;;;;;;24.25;100.00;100378.66;5004873;28;20046;-77
2023/07/18 01:13:22;;;;;;;2.08;1.35;;;;;;;23.60;100.00;100279.59;5008574;28;20034;-77
2023/07/18 01:15:47;;;;;;;2.42;1.70;;;;;;;23.24;100.00;100280.66;5004206;28;20044;-77
2023/07/18 01:18:13;;;;;;;3.08;1.70;;;;;;;23.02;100.00;100258.72;4998005;28;20049;-79
2023/07/18 01:20:40;;;;;;;5.72;1.90;;;;;;;22.99;100.00;100269.56;4999200;28;20054;-78
2023/07/18 01:23:06;;;;;;;3.05;1.73;;;;;;;23.48;100.00;100344.53;5006767;28;20038;-77
2023/07/18 01:25:34;;;;;;;4.07;1.67;;;;;;;23.42;100.00;100372.53;5012331;28;20521;-78
2023/07/18 01:27:59;;;;;;;3.15;2.03;;;;;;;23.25;100.00;100354.69;5010992;28;20042;-77
2023/07/18 01:30:26;;;;;;;5.18;2.08;;;;;;;23.32;100.00;100360.56;5013789;28;20571;-78
2023/07/18 01:32:52;;;;;;;7.30;2.13;;;;;;;23.38;100.00;100368.28;4998881;28;20066;-78
2023/07/18 01:35:19;;;;;;;4.25;2.25;;;;;;;22.87;100.00;100279.94;5006652;28;20042;-78
2023/07/18 01:37:45;;;;;;;4.43;2.90;;;;;;;22.91;100.00;100278.84;4988765;28;20403;-78
2023/07/18 01:40:12;;;;;;;3.63;2.25;;;;;;;23.45;100.00;100352.75;5009070;28;20045;-78
2023/07/18 01:42:38;;;;;;;3.55;1.83;;;;;;;23.13;100.00;100250.94;5006088;28;20493;-79
2023/07/18 01:45:04;;;;;;;4.75;2.55;;;;;;;23.03;100.00;100257.75;4983837;28;20397;-77
2023/07/18 01:47:33;;;;;;;2.22;1.83;;;;;;;23.04;100.00;100276.41;5004138;28;20048;-77
2023/07/18 01:50:00;;;;;;;2.70;1.17;;;;;;;23.50;100.00;100323.91;5002517;28;20042;-79
2023/07/18 01:52:28;;;;;;;6.13;2.97;;;;;;;23.71;100.00;100335.22;5008808;28;20045;-79
2023/07/18 01:54:58;;;;;;;3.70;2.42;;;;;;;23.02;100.00;100237.31;5008369;28;20092;-78
2023/07/18 01:57:25;;;;;;;5.70;2.40;;;;;;;23.62;100.00;100327.69;5004609;28;20045;-79
2023/07/18 01:59:51;;;;;;;4.05;2.72;;;;;;;23.68;100.00;100322.88;5001583;28;20816;-77
2023/07/18 02:02:17;;;;;;;4.18;3.78;;;;;;;23.59;100.00;100334.97;5004568;28;20038;-80
2023/07/18 02:04:43;;;;;;;3.15;1.60;;;;;;;23.34;100.00;100316.72;4999731;28;20044;-77
2023/07/18 02:07:08;;;;;;;4.72;2.35;;;;;;;22.86;100.00;100277.38;5006687;28;20049;-77
2023/07/18 02:09:34;;;;;;;7.40;1.95;;;;;;;22.79;100.00;100294.69;5005769;28;20029;-78
2023/07/18 02:12:00;;;;;;;4.32;2.15;;;;;;;22.20;100.00;100228.16;5007548;28;20050;-78
2023/07/18 02:14:25;;;;;;;7.07;1.98;;;;;;;22.46;100.00;100252.72;5003004;28;20072;-78
2023/07/18 02:16:51;;;;;;;3.92;1.88;;;;;;;23.20;100.00;100337.13;5003425;28;20046;-77
2023/07/18 02:19:17;;;;;;;4.03;2.20;;;;;;;22.30;100.00;100244.59;5002110;28;20490;-78
2023/07/18 02:21:43;;;;;;;4.15;2.55;;;;;;;22.73;100.00;100342.22;5006482;28;20065;-79
2023/07/18 02:24:08;;;;;;;2.92;1.95;;;;;;;21.87;100.00;100220.91;5008672;28;20537;-77
2023/07/18 02:26:34;;;;;;;4.95;2.35;;;;;;;22.19;100.00;100257.63;5005825;28;20046;-78
2023/07/18 02:28:59;;;;;;;3.72;2.20;;;;;;;22.69;100.00;100340.66;5002053;28;20050;-76
2023/07/18 02:31:25;;;;;;;3.55;2.55;;;;;;;22.60;100.00;100330.41;5003618;28;20053;-79
2023/07/18 02:33:50;;;;;;;4.25;1.77;;;;;;;22.37;100.00;100246.03;5005383;28;20176;-78
2023/07/18 02:36:15;;;;;;;6.43;3.20;;;;;;;22.51;100.00;100310.34;5003368;28;20034;-77
2023/07/18 02:38:41;;;;;;;2.30;1.48;;;;;;;22.29;100.00;100261.59;5007737;28;20049;-77
2023/07/18 02:41:06;;;;;;;4.50;2.58;;;;;;;22.33;100.00;100221.25;4998219;28;20042;-78
2023/07/18 02:43:32;;;;;;;3.17;2.30;;;;;;;22.75;100.00;100286.81;5002240;28;20699;-78
2023/07/18 02:45:57;;;;;;;5.95;2.53;;;;;;;22.93;100.00;100301.03;5001408;28;20061;-77
2023/07/18 02:48:23;;;;;;;3.53;2.08;;;;;;;23.05;100.00;100320.09;5003195;28;20038;-78
2023/07/18 02:50:48;;;;;;;3.83;2.22;;;;;;;22.93;100.00;100281.44;5007432;28;20390;-78
2023/07/18 02:53:14;;;;;;;3.00;2.28;;;;;;;23.04;100.00;100297.81;5007533;28;20052;-77
2023/07/18 02:55:39;;;;;;;3.67;2.15;;;;;;;22.63;100.00;100243.78;5001232;28;20077;-77
2023/07/18 02:58:05;;;;;;;2.80;1.42;;;;;;;22.66;100.00;100232.94;5000776;28;20050;-77
2023/07/18 03:00:33;;;;;;;3.35;2.05;;;;;;;22.60;100.00;100214.53;5005218;28;20394;-78
2023/07/18 03:02:59;;;;;;;4.78;2.67;;;;;;;22.91;100.00;100276.16;5006573;28;20054;-78
2023/07/18 03:05:24;;;;;;;3.95;2.70;;;;;;;22.61;100.00;100224.28;5005915;28;20048;-77
2023/07/18 03:07:51;;;;;;;2.88;2.05;;;;;;;22.93;100.00;100289.47;5005676;28;20050;-79
2023/07/18 03:10:16;;;;;;;4.00;1.90;;;;;;;22.73;100.00;100243.25;5001805;28;20081;-77
2023/07/18 03:12:42;;;;;;;3.17;2.17;;;;;;;23.10;100.00;100291.25;5003357;28;20121;-77
2023/07/18 03:15:11;;;;;;;3.45;2.28;;;;;;;22.98;100.00;100252.63;4998246;28;20364;-78
2023/07/18 03:17:36;;;;;;;6.25;3.10;;;;;;;22.50;100.00;100169.56;5007957;28;20058;-78
2023/07/18 03:20:13;;;;;;;3.35;1.75;;;;;;;23.28;100.00;100292.09;5002474;28;20720;-79
2023/07/18 03:22:38;;;;;;;5.38;2.10;;;;;;;23.29;100.00;100304.50;5007532;28;20107;-79
2023/07/18 03:25:05;;;;;;;3.38;1.58;;;;;;;22.72;100.00;100206.72;4999204;28;20446;-78
2023/07/18 03:27:30;;;;;;;5.65;2.67;;;;;;;23.30;100.00;100282.16;4999353;28;20803;-77
2023/07/18 03:29:56;;;;;;;5.93;2.03;;;;;;;22.88;100.00;100206.75;4997496;28;20058;-78
2023/07/18 03:32:22;;;;;;;8.88;3.03;;;;;;;23.38;100.00;100294.16;5014340;28;20496;-78
2023/07/18 03:34:48;;;;;;;6.47;1.83;;;;;;;23.19;100.00;100245.25;5004766;28;20543;-78
2023/07/18 03:37:13;;;;;;;2.97;1.67;;;;;;;23.45;100.00;100289.31;5003361;28;20046;-78
2023/07/18 03:39:38;;;;;;;4.38;2.63;;;;;;;23.27;100.00;100293.00;4982701;28;20049;-79
2023/07/18 03:42:04;;;;;;;4.35;2.85;;;;;;;23.04;100.00;100214.84;5005055;28;20034;-79
2023/07/18 03:44:30;;;;;;;4.65;2.63;;;;;;;23.18;100.00;100214.09;5006887;28;20066;-78
2023/07/18 03:46:55;;;;;;;4.05;2.30;;;;;;;23.66;100.00;100283.72;4981613;28;20104;-79
2023/07/18 03:49:21;;;;;;;4.18;2.30;;;;;;;23.03;100.00;100180.13;4999442;28;20100;-79
2023/07/18 03:51:46;;;;;;;5.53;3.08;;;;;;;23.50;100.00;100247.06;4989058;28;20025;-77
2023/07/18 03:54:12;;;;;;;3.63;2.08;;;;;;;23.09;100.00;100180.66;4996058;28;20029;-77
2023/07/18 03:56:37;;;;;;;2.45;1.00;;;;;;;23.36;100.00;100221.06;4999755;28;20093;-77
2023/07/18 03:59:03;;;;;;;4.53;2.35;;;;;;;23.43;100.00;100236.81;5007710;28;20045;-76
2023/07/18 04:01:28;;;;;;;2.88;2.13;;;;;;;23.48;100.00;100227.53;5000956;28;20057;-76
2023/07/18 04:03:54;;;;;;;5.03;2.70;;;;;;;24.00;100.00;100296.97;5006214;28;20040;-79
2023/07/18 04:06:20;;;;;;;3.78;2.58;;;;;;;23.53;100.00;100214.78;5001054;28;20034;-80
2023/07/18 04:08:45;;;;;;;3.90;2.40;;;;;;;23.68;100.00;100228.25;4992225;28;20050;-79
2023/07/18 04:11:11;;;;;;;3.65;2.47;;;;;;;24.10;100.00;100283.03;4998204;28;20046;-78
2023/07/18 04:13:37;;;;;;;4.07;2.40;;;;;;;23.57;100.00;100199.38;5010862;28;20042;-78
2023/07/18 04:16:05;;;;;;;11.50;4.35;;;;;;;24.35;100.00;100315.50;5004464;28;20045;-78
2023/07/18 04:18:30;;;;;;;6.78;2.58;;;;;;;24.31;100.00;100305.91;5005450;28;20362;-78
2023/07/18 04:21:03;;;;;;;4.97;2.75;;;;;;;24.00;100.00;100243.34;5004260;28;20042;-77
2023/07/18 04:23:29;;;;;;;8.05;2.55;;;;;;;24.04;100.00;100235.97;5009511;28;20037;-78
2023/07/18 04:26:02;;;;;;;5.45;3.42;;;;;;;23.75;100.00;100184.94;5001691;28;20534;-78
2023/07/18 04:28:29;;;;;;;5.22;2.33;;;;;;;24.75;100.00;100328.38;5007742;28;20061;-78
2023/07/18 04:30:55;;;;;;;5.05;3.15;;;;;;;24.46;100.00;100252.28;5004334;28;20044;-78
2023/07/18 04:33:20;;;;;;;4.70;2.50;;;;;;;24.49;100.00;100246.75;5002402;28;20715;-78
2023/07/18 04:35:46;;;;;;;3.70;2.42;;;;;;;24.53;100.00;100245.63;4997808;28;20058;-79
2023/07/18 04:38:13;;;;;;;6.13;2.42;;;;;;;25.00;100.00;100319.69;5001445;28;20043;-77
2023/07/18 04:40:39;;;;;;;4.53;3.00;;;;;;;25.04;100.00;100313.16;5003013;28;20045;-78
2023/07/18 04:43:06;;;;;;;6.07;2.72;;;;;;;24.80;100.00;100253.81;4991940;28;20093;-79
2023/07/18 04:45:32;;;;;;;5.53;2.55;;;;;;;25.18;100.00;100302.47;5000687;28;20038;-79
2023/07/18 04:47:58;;;;;;;3.58;1.77;;;;;;;25.46;100.00;100316.84;4995050;28;20077;-78
2023/07/18 04:50:23;;;;;;;4.72;2.50;;;;;;;25.11;100.00;100259.94;4981236;28;20526;-76
2023/07/18 04:52:49;;;;;;;7.60;2.95;;;;;;;24.85;100.00;100230.22;4995660;28;20097;-79
2023/07/18 04:55:15;;;;;;;5.18;2.30;;;;;;;25.39;100.00;100323.56;4996472;28;20042;-79
2023/07/18 04:57:41;;;;;;;4.38;2.42;;;;;;;24.79;100.00;100244.03;5005045;28;20546;-79
2023/07/18 05:00:07;;;;;;;5.82;3.83;;;;;;;24.47;100.00;100214.69;5006230;28;20124;-79
2023/07/18 05:02:32;;;;;;;3.42;2.22;;;;;;;25.17;100.00;100314.16;5004251;28;20046;-79
2023/07/18 05:04:58;;;;;;;5.20;3.35;;;;;;;25.13;100.00;100291.13;5003924;28;20054;-80
2023/07/18 05:07:24;;;;;;;4.38;2.47;;;;;;;25.60;100.00;100322.19;5008658;28;20046;-78
2023/07/18 05:09:50;;;;;;;3.03;1.98;;;;;;;25.38;100.00;100328.09;5007038;28;20493;-78
2023/07/18 05:12:15;;;;;;;8.82;2.90;;;;;;;25.24;100.00;100261.81;5009115;28;20042;-79
2023/07/18 05:14:40;;;;;;;5.28;2.13;;;;;;;24.89;100.00;100241.63;5007396;28;20057;-78
2023/07/18 05:17:06;;;;;;;3.97;2.67;;;;;;;25.67;100.00;100347.72;4998004;28;20551;-79
2023/07/18 05:19:31;;;;;;;7.85;3.97;;;;;;;25.63;100.00;100343.50;5004293;28;20069;-79
2023/07/18 05:21:57;;;;;;;13.15;2.95;;;;;;;25.80;100.00;100341.53;5002341;28;20061;-79
2023/07/18 05:24:24;;;;;;;5.07;3.58;;;;;;;25.93;100.00;100314.75;5006903;28;20401;-79
2023/07/18 05:26:50;;;;;;;5.53;2.65;;;;;;;26.28;100.00;100356.31;5006294;28;20100;-79
2023/07/18 05:29:15;;;;;;;4.10;2.40;;;;;;;26.43;100.00;100330.19;5006993;28;20050;-78
2023/07/18 05:31:42;;;;;;;4.07;2.50;;;;;;;26.21;100.00;100327.25;5005384;28;20054;-79
2023/07/18 05:34:07;;;;;;;6.47;2.97;;;;;;;26.63;100.00;100317.28;4999904;28;20042;-79
2023/07/18 05:36:33;;;;;;;6.75;3.65;;;;;;;26.65;100.00;100300.03;5006846;28;20033;-78
2023/07/18 05:38:59;;;;;;;3.05;2.13;;;;;;;27.16;100.00;100283.03;5007522;28;20046;-79
2023/07/18 05:41:25;;;;;;;3.40;2.13;;;;;;;27.99;100.00;100352.56;5007771;28;20099;-79
2023/07/18 05:43:51;;;;;;;6.65;1.83;;;;;;;27.40;100.00;100275.03;5008189;28;20441;-79
2023/07/18 05:46:17;;;;;;;4.43;2.03;;;;;;;27.68;100.00;100300.84;5002872;28;20081;-78
2023/07/18 05:48:42;;;;;;;4.28;2.50;;;;;;;27.66;100.00;100223.75;5003036;28;20461;-79
2023/07/18 05:51:08;;;;;;;3.88;2.72;;;;;;;28.75;100.00;100370.25;5007318;28;20025;-78
2023/07/18 05:53:33;;;;;;;3.15;1.92;;;;;;;28.85;100.00;100375.81;5006666;28;20069;-79
2023/07/18 05:55:59;;;;;;;7.00;6.30;;;;;;;28.56;100.00;100324.00;5002487;28;20061;-78
2023/07/18 05:58:24;;;;;;;4.15;2.00;;;;;;;29.28;98.92;100371.59;5005947;28;20042;-77
2023/07/18 06:00:50;;;;;;;6.72;2.33;;;;;;;28.93;95.21;100313.06;5006445;28;20026;-79
2023/07/18 06:03:15;;;;;;;7.22;2.78;;;;;;;27.96;100.00;100280.81;5001951;28;20507;-79
2023/07/18 06:05:41;;;;;;;4.15;3.40;;;;;;;28.48;100.00;100346.22;5003641;28;20068;-79
2023/07/18 06:08:07;;;;;;;3.83;2.78;;;;;;;29.04;100.00;100367.13;5006002;28;20081;-79
2023/07/18 06:10:33;;;;;;;5.45;2.45;;;;;;;29.07;100.00;100356.09;4991254;28;20045;-79
2023/07/18 06:12:58;;;;;;;3.78;2.75;;;;;;;28.54;100.00;100289.06;5003453;28;20038;-79
2023/07/18 06:15:25;;;;;;;3.97;3.00;;;;;;;29.19;99.40;100368.63;5001768;28;20521;-79
2023/07/18 06:17:51;;;;;;;5.43;3.28;;;;;;;29.39;97.49;100337.31;4998020;28;20568;-79
2023/07/18 06:20:17;;;;;;;4.55;2.55;;;;;;;29.04;100.00;100326.59;5007787;28;20046;-78
2023/07/18 06:22:44;;;;;;;4.80;2.92;;;;;;;29.38;96.09;100310.41;5007432;28;20444;-78
2023/07/18 06:25:10;;;;;;;9.55;3.15;;;;;;;29.44;88.18;100272.91;5007529;28;20062;-78
2023/07/18 06:27:35;;;;;;;4.68;2.83;;;;;;;29.47;95.14;100358.34;5003765;28;20121;-78
2023/07/18 06:30:01;;;;;;;16.83;4.90;;;;;;;29.29;95.49;100354.41;5007560;28;20193;-78
2023/07/18 06:32:27;;;;;;;4.65;2.63;;;;;;;29.27;91.26;100283.38;5006439;28;20057;-78
2023/07/18 06:34:52;;;;;;;2.70;1.83;;;;;;;29.04;92.33;100268.00;5008065;28;20206;-78
2023/07/18 06:37:18;;;;;;;4.68;2.50;;;;;;;30.21;88.94;100357.78;4989917;28;20163;-78
2023/07/18 06:39:43;;;;;;;2.88;1.80;;;;;;;29.72;90.60;100294.19;5007275;28;20041;-78
2023/07/18 06:42:09;;;;;;;4.68;2.28;;;;;;;29.78;86.69;100285.56;5000314;28;20084;-78
2023/07/18 06:44:34;;;;;;;8.35;3.30;;;;;;;29.10;93.66;100287.44;5003234;28;20042;-79
2023/07/18 06:47:00;;;;;;;1.92;1.23;;;;;;;29.95;85.62;100357.22;5006018;28;20042;-79
2023/07/18 06:49:26;;;;;;;2.72;1.40;;;;;;;29.52;83.87;100276.84;5004756;28;20532;-78
2023/07/18 06:51:51;;;;;;;7.28;2.65;;;;;;;29.79;90.77;100346.81;5007578;28;20037;-78
2023/07/18 06:54:18;;;;;;;8.40;3.17;;;;;;;30.29;86.84;100350.75;5014566;28;20076;-78
2023/07/18 06:56:45;;;;;;;5.18;2.33;;;;;;;30.11;90.79;100365.81;5001038;28;20417;-79
2023/07/18 06:59:13;;;;;;;4.90;2.80;;;;;;;30.27;81.71;100347.31;4999207;28;20046;-78
2023/07/18 07:01:38;;;;;;;3.78;2.15;;;;;;;29.66;88.91;100282.88;5006853;28;20054;-80
2023/07/18 07:04:04;;;;;;;4.85;2.40;;;;;;;30.25;82.05;100357.38;4998196;28;20129;-80
2023/07/18 07:06:30;;;;;;;2.88;1.70;;;;;;;29.57;80.64;100243.06;4999573;28;20041;-80
2023/07/18 07:08:55;;;;;;;4.18;2.15;;;;;;;30.51;85.95;100324.56;5002052;28;20064;-80
2023/07/18 07:11:20;;;;;;;3.47;2.50;;;;;;;30.23;85.94;100323.31;5004841;28;20068;-79
2023/07/18 07:13:46;;;;;;;5.43;2.83;;;;;;;30.11;87.26;100324.31;4998154;28;20050;-79
2023/07/18 07:16:12;;;;;;;4.85;2.38;;;;;;;30.05;86.86;100310.31;5001156;28;20041;-79
2023/07/18 07:18:37;;;;;;;7.97;3.67;;;;;;;30.36;82.74;100287.97;5002048;28;20045;-77
2023/07/18 07:21:05;;;;;;;4.50;2.95;;;;;;;30.42;83.67;100299.13;5000756;28;20049;-78
2023/07/18 07:23:30;;;;;;;4.93;2.88;;;;;;;30.43;82.14;100319.78;5000103;28;20050;-78
2023/07/18 07:25:56;;;;;;;3.35;1.52;;;;;;;30.71;77.92;100348.09;5000183;28;20057;-78
2023/07/18 07:28:25;;;;;;;5.53;3.47;;;;;;;30.26;83.11;100302.28;4992124;28;20137;-78
2023/07/18 07:30:51;;;;;;;2.33;1.73;;;;;;;30.57;79.46;100352.97;5003301;28;20076;-79
2023/07/18 07:33:17;;;;;;;3.60;2.50;;;;;;;30.56;80.88;100348.56;5012196;28;20166;-77
2023/07/18 07:35:43;;;;;;;3.83;2.35;;;;;;;30.42;77.75;100279.31;5016381;28;20054;-77
2023/07/18 07:38:09;;;;;;;7.53;2.05;;;;;;;30.81;81.09;100323.78;5006850;28;20060;-78
2023/07/18 07:40:34;;;;;;;4.45;2.80;;;;;;;30.55;80.57;100289.94;5010490;28;20045;-78
2023/07/18 07:43:00;;;;;;;5.30;3.20;;;;;;;30.82;80.59;100297.56;5006252;28;20115;-79
2023/07/18 07:45:26;;;;;;;3.78;2.47;;;;;;;30.89;75.16;100272.53;5005628;28;20022;-78
2023/07/18 07:47:51;;;;;;;6.05;3.65;;;;;;;31.09;76.71;100335.84;5010340;28;20041;-77
2023/07/18 07:50:17;;;;;;;6.35;4.25;;;;;;;30.62;78.90;100310.09;5003263;28;20508;-77
2023/07/18 07:52:42;;;;;;;5.97;4.45;;;;;;;30.68;79.99;100325.84;4999219;28;20041;-77
2023/07/18 07:55:11;;;;;;;4.22;2.60;;;;;;;31.43;79.86;100360.00;4999232;28;20060;-80
2023/07/18 07:57:37;;;;;;;5.32;2.72;;;;;;;31.61;79.34;100327.66;5004613;28;20111;-78
2023/07/18 08:00:03;;;;;;;4.68;3.10;;;;;;;31.19;73.50;100289.78;5005911;28;20517;-79
2023/07/18 08:02:29;;;;;;;8.77;3.00;;;;;;;31.78;74.73;100334.28;5005562;28;20052;-80
2023/07/18 08:04:54;;;;;;;3.53;2.03;;;;;;;31.88;75.35;100320.72;4997496;28;20072;-79
2023/07/18 08:07:20;;;;;;;8.00;2.53;;;;;;;31.07;74.31;100290.84;5004034;28;20053;-79
2023/07/18 08:09:46;;;;;;;3.90;2.60;;;;;;;31.45;73.61;100352.59;5003653;28;20170;-77
2023/07/18 08:12:12;;;;;;;5.15;3.17;;;;;;;31.74;74.01;100363.53;5007189;28;20069;-77
2023/07/18 08:14:38;;;;;;;3.60;2.35;;;;;;;31.49;71.20;100291.66;4984530;28;20127;-77
2023/07/18 08:17:05;;;;;;;4.25;2.17;;;;;;;31.82;74.08;100362.88;5007086;28;20442;-76
2023/07/18 08:19:34;;;;;;;3.67;2.58;;;;;;;31.75;71.14;100288.44;5005033;28;20054;-79
2023/07/18 08:22:00;;;;;;;6.22;3.00;;;;;;;32.03;68.10;100285.91;5003293;28;20046;-75
2023/07/18 08:24:26;;;;;;;3.63;2.55;;;;;;;32.37;65.86;100351.53;5003179;28;20033;-73
2023/07/18 08:26:51;;;;;;;5.47;2.83;;;;;;;32.44;66.17;100349.13;5004501;28;20053;-76
2023/07/18 08:29:17;;;;;;;6.25;2.88;;;;;;;32.39;64.84;100268.06;5005414;28;20093;-75
2023/07/18 08:31:42;;;;;;;3.75;2.00;;;;;;;33.09;61.62;100341.22;4996779;28;20046;-75
2023/07/18 08:34:08;;;;;;;5.07;2.10;;;;;;;33.46;63.85;100333.06;5003223;28;20542;-80
2023/07/18 08:36:35;;;;;;;4.53;2.13;;;;;;;33.62;59.78;100313.38;4999673;28;20046;-80
2023/07/18 08:39:02;;;;;;;6.75;3.67;;;;;;;33.11;59.09;100279.41;5001140;28;20089;-79
2023/07/18 08:41:28;;;;;;;3.47;2.40;;;;;;;33.94;57.80;100323.78;5004969;28;20077;-79
2023/07/18 08:43:54;;;;;;;4.78;3.17;;;;;;;33.90;57.06;100256.19;5007609;28;20061;-79
2023/07/18 08:46:20;;;;;;;4.03;3.00;;;;;;;34.59;54.71;100322.75;5007246;28;20049;-80
2023/07/18 08:48:47;;;;;;;3.97;2.65;;;;;;;34.41;52.96;100255.47;5001269;28;20041;-79
2023/07/18 08:51:14;;;;;;;4.90;3.08;;;;;;;34.33;51.20;100325.41;4999946;28;20018;-79
2023/07/18 08:53:40;;;;;;;4.18;2.63;;;;;;;34.19;52.99;100305.88;5009182;28;20128;-78
2023/07/18 08:56:09;;;;;;;4.60;2.95;;;;;;;34.98;51.33;100327.81;5007459;28;20544;-78
2023/07/18 08:58:37;;;;;;;4.10;2.60;;;;;;;33.93;50.65;100286.69;5006226;28;20042;-79
2023/07/18 09:01:04;;;;;;;6.47;3.15;;;;;;;34.78;51.20;100338.09;5009512;28;20038;-83
2023/07/18 09:03:29;;;;;;;5.35;2.22;;;;;;;35.57;49.62;100320.66;5007537;28;20452;-79
2023/07/18 09:05:55;;;;;;;3.75;2.58;;;;;;;34.72;48.09;100287.75;5002732;28;20046;-79
2023/07/18 09:08:22;;;;;;;3.72;2.13;;;;;;;34.17;47.66;100277.06;5004252;28;20058;-81
2023/07/18 09:11:00;;;;;;;3.80;2.42;;;;;;;35.04;47.44;100328.03;5009287;28;20446;-81
2023/07/18 09:13:25;;;;;;;6.25;3.67;;;;;;;34.72;47.83;100327.78;5008904;28;20494;-82
2023/07/18 09:15:50;;;;;;;5.80;1.85;;;;;;;35.76;47.24;100316.84;5008497;28;20060;-82
2023/07/18 09:18:16;;;;;;;4.40;2.67;;;;;;;34.42;47.45;100270.81;5006122;28;20030;-79
2023/07/18 09:20:41;;;;;;;2.92;1.80;;;;;;;35.40;46.77;100335.25;5008654;28;20045;-80
2023/07/18 09:23:07;;;;;;;4.18;2.35;;;;;;;35.09;45.96;100275.72;5008654;28;20046;-78
2023/07/18 09:25:39;;;;;;;6.53;3.28;;;;;;;35.93;46.19;100269.41;5008297;28;20053;-79
2023/07/18 09:28:09;;;;;;;2.95;1.98;;;;;;;34.76;46.90;100253.72;5008241;28;20418;-78
2023/07/18 09:30:35;;;;;;;3.15;1.85;;;;;;;35.44;46.69;100332.03;5005397;28;20057;-79
2023/07/18 09:33:05;;;;;;;5.78;3.72;;;;;;;34.87;47.06;100334.41;5006839;28;20074;-79
2023/07/18 09:35:40;;;;;;;3.05;2.75;;;;;;;34.89;47.12;100318.75;4999417;28;20042;-79
2023/07/18 09:38:07;;;;;;;4.50;2.88;;;;;;;35.41;46.85;100332.34;5008412;28;20046;-78
2023/07/18 09:40:35;;;;;;;3.80;2.75;;;;;;;35.90;45.76;100318.06;5012382;28;20042;-79
2023/07/18 09:43:01;;;;;;;4.47;3.25;;;;;;;36.37;44.52;100322.09;5007909;28;20486;-81
2023/07/18 09:45:27;;;;;;;3.10;2.17;;;;;;;35.98;44.82;100252.50;4988348;28;20440;-77
2023/07/18 09:47:53;;;;;;;4.45;3.90;;;;;;;34.63;46.19;100254.16;5008270;28;20042;-80
2023/07/18 09:50:18;;;;;;;3.38;2.20;;;;;;;35.00;46.22;100317.59;5000703;28;20148;-78
2023/07/18 09:52:51;;;;;;;4.05;2.83;;;;;;;35.76;44.85;100299.59;5004026;28;20065;-78
2023/07/18 09:55:34;;;;;;;3.83;2.35;;;;;;;36.72;43.63;100260.75;5006717;28;20046;-79
2023/07/18 09:58:00;;;;;;;2.42;1.45;;;;;;;36.15;43.26;100245.22;5006296;28;20042;-79
2023/07/18 10:00:26;;;;;;;3.80;2.45;;;;;;;35.20;45.02;100242.72;5008685;28;20038;-79
2023/07/18 10:02:52;;;;;;;2.75;1.58;;;;;;;35.81;44.75;100234.41;4999388;28;20474;-79
2023/07/18 10:05:19;;;;;;;4.80;2.67;;;;;;;35.67;45.05;100242.22;5010038;28;20045;-78
2023/07/18 10:07:45;;;;;;;4.07;2.88;;;;;;;36.64;43.32;100293.56;5014881;28;20056;-81
2023/07/18 10:10:13;;;;;;;3.55;2.78;;;;;;;37.29;42.47;100292.59;4998971;28;20045;-80
2023/07/18 10:12:58;;;;;;;4.78;2.08;;;;;;;36.97;41.66;100232.31;4987135;28;20104;-79
2023/07/18 10:15:23;;;;;;;2.70;2.08;;;;;;;35.21;44.00;100251.75;5001537;28;20037;-79
2023/07/18 10:17:52;;;;;;;4.65;3.33;;;;;;;36.25;44.08;100300.56;5007686;28;20045;-79
2023/07/18 10:20:19;;;;;;;3.05;2.47;;;;;;;36.25;43.35;100226.78;5002999;28;20049;-79
2023/07/18 10:22:48;;;;;;;3.13;1.88;;;;;;;35.85;44.27;100284.94;5008129;28;20490;-80
2023/07/18 10:25:16;;;;;;;2.88;2.00;;;;;;;35.47;44.70;100230.72;5008223;28;20807;-79
2023/07/18 10:27:43;;;;;;;2.67;2.22;;;;;;;35.47;46.08;100262.59;4999402;28;20033;-79
2023/07/18 10:30:16;;;;;;;5.03;3.22;;;;;;;35.40;46.28;100232.41;4981893;28;20022;-80
2023/07/18 10:32:43;;;;;;;6.43;4.43;;;;;;;35.05;46.72;100168.81;4990951;28;20062;-80
2023/07/18 10:35:13;;;;;;;2.67;2.08;;;;;;;36.11;45.60;100269.31;5006622;28;20038;-78
2023/07/18 10:37:43;;;;;;;2.45;1.48;;;;;;;36.49;45.00;100209.50;5005208;28;20212;-78
2023/07/18 10:40:09;;;;;;;3.95;2.72;;;;;;;35.73;46.83;100289.88;5004204;28;20042;-78
2023/07/18 10:42:34;;;;;;;15.98;2.67;;;;;;;35.99;45.70;100207.81;5006301;28;20045;-79
2023/07/18 10:45:06;;;;;;;4.10;2.20;;;;;;;35.98;45.99;100277.09;5006184;28;20115;-78
2023/07/18 10:47:35;;;;;;;4.28;3.05;;;;;;;36.65;45.69;100267.94;5007395;28;20053;-78
2023/07/18 10:50:02;;;;;;;22.75;2.97;;;;;;;34.84;49.28;100282.88;5001527;28;20054;-78
2023/07/18 10:52:28;;;;;;;4.40;1.73;;;;;;;34.44;49.44;100211.56;5006087;28;20061;-76
2023/07/18 10:54:56;;;;;;;3.53;2.22;;;;;;;34.21;49.54;100256.69;5004946;28;20414;-78
2023/07/18 10:57:26;;;;;;;3.45;2.80;;;;;;;34.85;48.83;100290.91;4995275;28;20163;-79
2023/07/18 10:59:52;;;;;;;4.90;3.35;;;;;;;35.60;47.03;100263.00;4996800;28;20054;-78
2023/07/18 11:02:19;;;;;;;5.13;2.65;;;;;;;35.96;46.98;100261.91;4993677;28;20100;-78
2023/07/18 11:04:45;;;;;;;3.22;2.20;;;;;;;35.18;48.49;100227.53;5000092;28;20042;-80
2023/07/18 11:07:11;;;;;;;5.22;2.35;;;;;;;35.97;48.16;100209.00;5004254;28;20547;-80
2023/07/18 11:09:36;;;;;;;3.33;2.42;;;;;;;36.03;47.38;100203.69;5002272;28;20030;-80
2023/07/18 11:12:03;;;;;;;4.70;3.20;;;;;;;35.15;48.36;100215.09;4977811;28;20160;-80
2023/07/18 11:14:38;;;;;;;3.45;2.33;;;;;;;35.48;48.16;100237.03;5000423;28;20058;-80